sensor_id;sensor_type;location;lat;lon;timestamp;P1;durP1;ratioP1;P2;durP2;ratioP2
52041;SDS011;38052;45.944;13.624;2023-07-30T00:00:41;15.82;;;7.93;;
52041;SDS011;38052;45.944;13.624;2023-07-30T00:03:08;9.52;;;6.82;;
52041;SDS011;38052;45.944;13.624;2023-07-30T00:05:34;9.27;;;6.50;;
52041;SDS011;38052;45.944;13.624;2023-07-30T00:08:01;9.02;;;6.32;;
52041;SDS011;38052;45.944;13.624;2023-07-30T00:10:27;8.68;;;6.22;;
52041;SDS011;38052;45.944;13.624;2023-07-30T00:12:54;7.68;;;6.57;;
52041;SDS011;38052;45.944;13.624;2023-07-30T00:15:20;7.20;;;5.70;;
52041;SDS011;38052;45.944;13.624;2023-07-30T00:17:47;9.10;;;5.60;;
52041;SDS011;38052;45.944;13.624;2023-07-30T00:20:14;9.23;;;5.68;;
52041;SDS011;38052;45.944;13.624;2023-07-30T00:22:40;7.43;;;5.80;;
52041;SDS011;38052;45.944;13.624;2023-07-30T00:25:07;9.70;;;6.20;;
52041;SDS011;38052;45.944;13.624;2023-07-30T00:27:33;7.53;;;5.13;;
52041;SDS011;38052;45.944;13.624;2023-07-30T00:29:59;8.05;;;6.25;;
52041;SDS011;38052;45.944;13.624;2023-07-30T00:32:25;8.65;;;6.18;;
52041;SDS011;38052;45.944;13.624;2023-07-30T00:34:52;8.88;;;5.85;;
52041;SDS011;38052;45.944;13.624;2023-07-30T00:37:18;7.55;;;6.32;;
52041;SDS011;38052;45.944;13.624;2023-07-30T00:39:45;10.27;;;6.28;;
52041;SDS011;38052;45.944;13.624;2023-07-30T00:42:11;9.98;;;7.30;;
52041;SDS011;38052;45.944;13.624;2023-07-30T00:44:38;10.60;;;8.00;;
52041;SDS011;38052;45.944;13.624;2023-07-30T00:47:04;11.73;;;7.22;;
52041;SDS011;38052;45.944;13.624;2023-07-30T00:49:30;10.98;;;7.85;;
52041;SDS011;38052;45.944;13.624;2023-07-30T00:51:57;9.43;;;6.45;;
52041;SDS011;38052;45.944;13.624;2023-07-30T00:54:23;9.02;;;6.70;;
52041;SDS011;38052;45.944;13.624;2023-07-30T00:56:51;8.68;;;6.75;;
52041;SDS011;38052;45.944;13.624;2023-07-30T00:59:19;6.93;;;6.10;;
52041;SDS011;38052;45.944;13.624;2023-07-30T01:01:46;9.75;;;6.75;;
52041;SDS011;38052;45.944;13.624;2023-07-30T01:04:15;6.40;;;5.38;;
52041;SDS011;38052;45.944;13.624;2023-07-30T01:06:42;9.73;;;6.28;;
52041;SDS011;38052;45.944;13.624;2023-07-30T01:09:08;8.75;;;5.55;;
52041;SDS011;38052;45.944;13.624;2023-07-30T01:11:35;6.00;;;5.35;;
52041;SDS011;38052;45.944;13.624;2023-07-30T01:14:03;8.77;;;5.15;;
52041;SDS011;38052;45.944;13.624;2023-07-30T01:16:31;6.97;;;4.60;;
52041;SDS011;38052;45.944;13.624;2023-07-30T01:18:58;5.97;;;4.25;;
52041;SDS011;38052;45.944;13.624;2023-07-30T01:21:28;7.43;;;5.28;;
52041;SDS011;38052;45.944;13.624;2023-07-30T01:23:54;7.30;;;5.60;;
52041;SDS011;38052;45.944;13.624;2023-07-30T01:26:22;11.77;;;6.75;;
52041;SDS011;38052;45.944;13.624;2023-07-30T01:28:49;7.00;;;5.63;;
52041;SDS011;38052;45.944;13.624;2023-07-30T01:31:17;11.20;;;6.13;;
52041;SDS011;38052;45.944;13.624;2023-07-30T01:33:46;7.25;;;5.13;;
52041;SDS011;38052;45.944;13.624;2023-07-30T01:36:13;8.40;;;6.20;;
52041;SDS011;38052;45.944;13.624;2023-07-30T01:38:41;6.45;;;4.90;;
52041;SDS011;38052;45.944;13.624;2023-07-30T01:41:08;9.45;;;5.15;;
52041;SDS011;38052;45.944;13.624;2023-07-30T01:43:35;5.60;;;4.90;;
52041;SDS011;38052;45.944;13.624;2023-07-30T01:46:02;6.30;;;4.45;;
52041;SDS011;38052;45.944;13.624;2023-07-30T01:48:28;5.72;;;4.20;;
52041;SDS011;38052;45.944;13.624;2023-07-30T01:50:55;5.45;;;3.90;;
52041;SDS011;38052;45.944;13.624;2023-07-30T01:53:22;7.00;;;6.00;;
52041;SDS011;38052;45.944;13.624;2023-07-30T01:55:48;5.00;;;4.00;;
52041;SDS011;38052;45.944;13.624;2023-07-30T01:58:15;8.68;;;4.10;;
52041;SDS011;38052;45.944;13.624;2023-07-30T02:00:42;7.65;;;3.83;;
52041;SDS011;38052;45.944;13.624;2023-07-30T02:03:09;4.65;;;3.83;;
52041;SDS011;38052;45.944;13.624;2023-07-30T02:05:37;5.32;;;2.92;;
52041;SDS011;38052;45.944;13.624;2023-07-30T02:08:03;4.00;;;3.55;;
52041;SDS011;38052;45.944;13.624;2023-07-30T02:10:30;6.35;;;3.42;;
52041;SDS011;38052;45.944;13.624;2023-07-30T02:12:56;4.60;;;2.92;;
52041;SDS011;38052;45.944;13.624;2023-07-30T02:15:23;3.35;;;2.90;;
52041;SDS011;38052;45.944;13.624;2023-07-30T02:17:49;4.22;;;2.97;;
52041;SDS011;38052;45.944;13.624;2023-07-30T02:20:16;5.45;;;4.07;;
52041;SDS011;38052;45.944;13.624;2023-07-30T02:22:43;6.15;;;3.22;;
52041;SDS011;38052;45.944;13.624;2023-07-30T02:25:09;6.35;;;3.83;;
52041;SDS011;38052;45.944;13.624;2023-07-30T02:27:36;6.25;;;2.70;;
52041;SDS011;38052;45.944;13.624;2023-07-30T02:30:04;5.78;;;2.20;;
52041;SDS011;38052;45.944;13.624;2023-07-30T02:32:30;2.85;;;1.90;;
52041;SDS011;38052;45.944;13.624;2023-07-30T02:34:57;3.13;;;1.95;;
52041;SDS011;38052;45.944;13.624;2023-07-30T02:37:24;5.20;;;2.53;;
52041;SDS011;38052;45.944;13.624;2023-07-30T02:39:50;4.28;;;2.35;;
52041;SDS011;38052;45.944;13.624;2023-07-30T02:42:18;5.45;;;2.33;;
52041;SDS011;38052;45.944;13.624;2023-07-30T02:44:44;4.60;;;1.98;;
52041;SDS011;38052;45.944;13.624;2023-07-30T02:47:11;4.10;;;1.92;;
52041;SDS011;38052;45.944;13.624;2023-07-30T02:49:37;2.92;;;1.23;;
52041;SDS011;38052;45.944;13.624;2023-07-30T02:52:04;2.72;;;1.40;;
52041;SDS011;38052;45.944;13.624;2023-07-30T02:54:30;2.25;;;1.02;;
52041;SDS011;38052;45.944;13.624;2023-07-30T02:56:57;1.58;;;1.05;;
52041;SDS011;38052;45.944;13.624;2023-07-30T02:59:24;3.00;;;0.80;;
52041;SDS011;38052;45.944;13.624;2023-07-30T03:01:50;3.15;;;1.00;;
52041;SDS011;38052;45.944;13.624;2023-07-30T03:04:18;2.72;;;0.80;;
52041;SDS011;38052;45.944;13.624;2023-07-30T03:06:44;2.92;;;0.93;;
52041;SDS011;38052;45.944;13.624;2023-07-30T03:09:11;2.20;;;0.90;;
52041;SDS011;38052;45.944;13.624;2023-07-30T03:11:38;2.72;;;0.90;;
52041;SDS011;38052;45.944;13.624;2023-07-30T03:14:04;2.65;;;0.77;;
52041;SDS011;38052;45.944;13.624;2023-07-30T03:16:31;1.15;;;0.50;;
52041;SDS011;38052;45.944;13.624;2023-07-30T03:18:58;3.13;;;0.47;;
52041;SDS011;38052;45.944;13.624;2023-07-30T03:21:24;1.88;;;0.68;;
52041;SDS011;38052;45.944;13.624;2023-07-30T03:23:51;1.27;;;0.40;;
52041;SDS011;38052;45.944;13.624;2023-07-30T03:26:18;1.20;;;0.45;;
52041;SDS011;38052;45.944;13.624;2023-07-30T03:28:44;2.60;;;0.55;;
52041;SDS011;38052;45.944;13.624;2023-07-30T03:31:11;1.10;;;0.60;;
52041;SDS011;38052;45.944;13.624;2023-07-30T03:33:37;1.05;;;0.52;;
52041;SDS011;38052;45.944;13.624;2023-07-30T03:36:04;1.75;;;0.90;;
52041;SDS011;38052;45.944;13.624;2023-07-30T03:38:31;1.42;;;0.43;;
52041;SDS011;38052;45.944;13.624;2023-07-30T03:40:57;1.27;;;0.57;;
52041;SDS011;38052;45.944;13.624;2023-07-30T03:43:24;1.58;;;0.80;;
52041;SDS011;38052;45.944;13.624;2023-07-30T03:45:50;0.95;;;0.45;;
52041;SDS011;38052;45.944;13.624;2023-07-30T03:48:17;2.20;;;0.80;;
52041;SDS011;38052;45.944;13.624;2023-07-30T03:50:43;3.00;;;0.45;;
52041;SDS011;38052;45.944;13.624;2023-07-30T03:53:10;1.77;;;0.52;;
52041;SDS011;38052;45.944;13.624;2023-07-30T03:55:37;2.15;;;0.40;;
52041;SDS011;38052;45.944;13.624;2023-07-30T03:58:03;1.17;;;0.50;;
52041;SDS011;38052;45.944;13.624;2023-07-30T04:00:30;2.88;;;0.50;;
52041;SDS011;38052;45.944;13.624;2023-07-30T04:02:56;2.05;;;0.47;;
52041;SDS011;38052;45.944;13.624;2023-07-30T04:05:22;2.38;;;0.40;;
52041;SDS011;38052;45.944;13.624;2023-07-30T04:07:49;3.00;;;0.98;;
52041;SDS011;38052;45.944;13.624;2023-07-30T04:10:15;4.18;;;0.70;;
52041;SDS011;38052;45.944;13.624;2023-07-30T04:12:41;1.48;;;0.70;;
52041;SDS011;38052;45.944;13.624;2023-07-30T04:15:08;1.67;;;0.57;;
52041;SDS011;38052;45.944;13.624;2023-07-30T04:17:37;1.42;;;0.50;;
52041;SDS011;38052;45.944;13.624;2023-07-30T04:20:04;3.70;;;0.65;;
52041;SDS011;38052;45.944;13.624;2023-07-30T04:22:31;3.58;;;0.68;;
52041;SDS011;38052;45.944;13.624;2023-07-30T04:24:58;3.75;;;0.68;;
52041;SDS011;38052;45.944;13.624;2023-07-30T04:27:24;1.52;;;0.60;;
52041;SDS011;38052;45.944;13.624;2023-07-30T04:29:51;2.10;;;0.98;;
52041;SDS011;38052;45.944;13.624;2023-07-30T04:32:18;4.72;;;0.75;;
52041;SDS011;38052;45.944;13.624;2023-07-30T04:34:44;1.95;;;0.40;;
52041;SDS011;38052;45.944;13.624;2023-07-30T04:37:10;1.08;;;0.52;;
52041;SDS011;38052;45.944;13.624;2023-07-30T04:39:37;5.28;;;0.55;;
52041;SDS011;38052;45.944;13.624;2023-07-30T04:42:03;2.15;;;0.45;;
52041;SDS011;38052;45.944;13.624;2023-07-30T04:44:30;3.78;;;0.40;;
52041;SDS011;38052;45.944;13.624;2023-07-30T04:46:57;1.13;;;0.38;;
52041;SDS011;38052;45.944;13.624;2023-07-30T04:49:24;4.10;;;0.80;;
52041;SDS011;38052;45.944;13.624;2023-07-30T04:51:51;0.60;;;0.20;;
52041;SDS011;38052;45.944;13.624;2023-07-30T04:54:17;1.98;;;0.40;;
52041;SDS011;38052;45.944;13.624;2023-07-30T04:56:44;1.98;;;0.30;;
52041;SDS011;38052;45.944;13.624;2023-07-30T04:59:11;2.35;;;0.73;;
52041;SDS011;38052;45.944;13.624;2023-07-30T05:01:37;0.82;;;0.50;;
52041;SDS011;38052;45.944;13.624;2023-07-30T05:04:04;2.22;;;0.40;;
52041;SDS011;38052;45.944;13.624;2023-07-30T05:06:31;1.85;;;0.30;;
52041;SDS011;38052;45.944;13.624;2023-07-30T05:08:57;2.42;;;0.57;;
52041;SDS011;38052;45.944;13.624;2023-07-30T05:11:24;2.78;;;0.47;;
52041;SDS011;38052;45.944;13.624;2023-07-30T05:13:51;1.73;;;0.50;;
52041;SDS011;38052;45.944;13.624;2023-07-30T05:16:17;1.42;;;0.45;;
52041;SDS011;38052;45.944;13.624;2023-07-30T05:18:44;1.00;;;0.60;;
52041;SDS011;38052;45.944;13.624;2023-07-30T05:21:10;3.20;;;0.60;;
52041;SDS011;38052;45.944;13.624;2023-07-30T05:23:37;0.65;;;0.40;;
52041;SDS011;38052;45.944;13.624;2023-07-30T05:26:03;2.38;;;0.82;;
52041;SDS011;38052;45.944;13.624;2023-07-30T05:28:30;3.53;;;0.85;;
52041;SDS011;38052;45.944;13.624;2023-07-30T05:30:56;3.55;;;0.70;;
52041;SDS011;38052;45.944;13.624;2023-07-30T05:33:23;2.10;;;0.90;;
52041;SDS011;38052;45.944;13.624;2023-07-30T05:35:49;2.47;;;0.60;;
52041;SDS011;38052;45.944;13.624;2023-07-30T05:38:15;0.73;;;0.70;;
52041;SDS011;38052;45.944;13.624;2023-07-30T05:40:42;1.90;;;0.90;;
52041;SDS011;38052;45.944;13.624;2023-07-30T05:43:09;1.67;;;0.75;;
52041;SDS011;38052;45.944;13.624;2023-07-30T05:45:35;2.25;;;0.80;;
52041;SDS011;38052;45.944;13.624;2023-07-30T05:48:01;3.53;;;1.00;;
52041;SDS011;38052;45.944;13.624;2023-07-30T05:50:28;1.52;;;0.98;;
52041;SDS011;38052;45.944;13.624;2023-07-30T05:52:54;3.92;;;1.00;;
52041;SDS011;38052;45.944;13.624;2023-07-30T05:55:20;4.32;;;0.93;;
52041;SDS011;38052;45.944;13.624;2023-07-30T05:57:46;1.33;;;0.90;;
52041;SDS011;38052;45.944;13.624;2023-07-30T06:00:13;1.33;;;0.85;;
52041;SDS011;38052;45.944;13.624;2023-07-30T06:02:39;2.00;;;0.95;;
52041;SDS011;38052;45.944;13.624;2023-07-30T06:05:05;1.55;;;0.90;;
52041;SDS011;38052;45.944;13.624;2023-07-30T06:07:33;1.48;;;0.77;;
52041;SDS011;38052;45.944;13.624;2023-07-30T06:09:59;1.42;;;1.13;;
52041;SDS011;38052;45.944;13.624;2023-07-30T06:12:26;4.47;;;1.00;;
52041;SDS011;38052;45.944;13.624;2023-07-30T06:14:52;1.55;;;0.98;;
52041;SDS011;38052;45.944;13.624;2023-07-30T06:17:18;2.35;;;1.08;;
52041;SDS011;38052;45.944;13.624;2023-07-30T06:19:45;2.33;;;1.38;;
52041;SDS011;38052;45.944;13.624;2023-07-30T06:22:12;2.70;;;1.05;;
52041;SDS011;38052;45.944;13.624;2023-07-30T06:24:38;2.25;;;0.82;;
52041;SDS011;38052;45.944;13.624;2023-07-30T06:27:04;3.25;;;1.13;;
52041;SDS011;38052;45.944;13.624;2023-07-30T06:29:34;2.90;;;1.98;;
52041;SDS011;38052;45.944;13.624;2023-07-30T06:32:01;4.60;;;3.22;;
52041;SDS011;38052;45.944;13.624;2023-07-30T06:34:27;3.53;;;1.13;;
52041;SDS011;38052;45.944;13.624;2023-07-30T06:36:54;1.30;;;0.80;;
52041;SDS011;38052;45.944;13.624;2023-07-30T06:39:20;5.40;;;1.30;;
52041;SDS011;38052;45.944;13.624;2023-07-30T06:41:46;5.72;;;1.05;;
52041;SDS011;38052;45.944;13.624;2023-07-30T06:44:13;1.77;;;0.90;;
52041;SDS011;38052;45.944;13.624;2023-07-30T06:46:41;4.88;;;1.45;;
52041;SDS011;38052;45.944;13.624;2023-07-30T06:49:07;3.88;;;1.58;;
52041;SDS011;38052;45.944;13.624;2023-07-30T06:51:34;4.05;;;1.80;;
52041;SDS011;38052;45.944;13.624;2023-07-30T06:54:00;1.65;;;0.95;;
52041;SDS011;38052;45.944;13.624;2023-07-30T06:56:26;2.20;;;1.17;;
52041;SDS011;38052;45.944;13.624;2023-07-30T06:58:53;3.65;;;1.10;;
52041;SDS011;38052;45.944;13.624;2023-07-30T07:01:20;1.60;;;0.93;;
52041;SDS011;38052;45.944;13.624;2023-07-30T07:03:47;2.60;;;0.93;;
52041;SDS011;38052;45.944;13.624;2023-07-30T07:06:13;1.83;;;0.93;;
52041;SDS011;38052;45.944;13.624;2023-07-30T07:08:40;3.30;;;1.00;;
52041;SDS011;38052;45.944;13.624;2023-07-30T07:11:06;1.90;;;0.85;;
52041;SDS011;38052;45.944;13.624;2023-07-30T07:13:32;1.10;;;0.70;;
52041;SDS011;38052;45.944;13.624;2023-07-30T07:15:58;1.30;;;0.80;;
52041;SDS011;38052;45.944;13.624;2023-07-30T07:18:24;2.40;;;0.80;;
52041;SDS011;38052;45.944;13.624;2023-07-30T07:20:52;1.75;;;0.93;;
52041;SDS011;38052;45.944;13.624;2023-07-30T07:23:18;0.90;;;0.60;;
52041;SDS011;38052;45.944;13.624;2023-07-30T07:25:45;2.67;;;0.82;;
52041;SDS011;38052;45.944;13.624;2023-07-30T07:28:11;5.25;;;1.02;;
52041;SDS011;38052;45.944;13.624;2023-07-30T07:30:37;2.72;;;1.13;;
52041;SDS011;38052;45.944;13.624;2023-07-30T07:33:04;2.60;;;1.05;;
52041;SDS011;38052;45.944;13.624;2023-07-30T07:35:31;4.05;;;0.90;;
52041;SDS011;38052;45.944;13.624;2023-07-30T07:37:57;3.55;;;0.47;;
52041;SDS011;38052;45.944;13.624;2023-07-30T07:40:24;3.17;;;0.90;;
52041;SDS011;38052;45.944;13.624;2023-07-30T07:42:50;0.77;;;0.57;;
52041;SDS011;38052;45.944;13.624;2023-07-30T07:45:17;2.30;;;0.68;;
52041;SDS011;38052;45.944;13.624;2023-07-30T07:47:43;1.77;;;0.65;;
52041;SDS011;38052;45.944;13.624;2023-07-30T07:50:10;1.80;;;0.70;;
52041;SDS011;38052;45.944;13.624;2023-07-30T07:52:36;2.35;;;0.70;;
52041;SDS011;38052;45.944;13.624;2023-07-30T07:55:03;2.97;;;1.08;;
52041;SDS011;38052;45.944;13.624;2023-07-30T07:57:30;0.93;;;0.60;;
52041;SDS011;38052;45.944;13.624;2023-07-30T07:59:57;1.00;;;0.50;;
52041;SDS011;38052;45.944;13.624;2023-07-30T08:02:23;1.23;;;0.55;;
52041;SDS011;38052;45.944;13.624;2023-07-30T08:04:49;3.35;;;0.40;;
52041;SDS011;38052;45.944;13.624;2023-07-30T08:07:16;3.15;;;0.60;;
52041;SDS011;38052;45.944;13.624;2023-07-30T08:09:42;0.80;;;0.40;;
52041;SDS011;38052;45.944;13.624;2023-07-30T08:12:09;1.33;;;0.50;;
52041;SDS011;38052;45.944;13.624;2023-07-30T08:14:35;1.98;;;0.77;;
52041;SDS011;38052;45.944;13.624;2023-07-30T08:17:01;1.50;;;0.57;;
52041;SDS011;38052;45.944;13.624;2023-07-30T08:19:27;1.90;;;0.52;;
52041;SDS011;38052;45.944;13.624;2023-07-30T08:21:54;0.50;;;0.30;;
52041;SDS011;38052;45.944;13.624;2023-07-30T08:24:21;1.35;;;0.50;;
52041;SDS011;38052;45.944;13.624;2023-07-30T08:26:48;3.03;;;0.50;;
52041;SDS011;38052;45.944;13.624;2023-07-30T08:29:15;1.77;;;0.60;;
52041;SDS011;38052;45.944;13.624;2023-07-30T08:31:41;3.35;;;0.60;;
52041;SDS011;38052;45.944;13.624;2023-07-30T08:34:08;2.85;;;0.38;;
52041;SDS011;38052;45.944;13.624;2023-07-30T08:36:34;1.98;;;0.57;;
52041;SDS011;38052;45.944;13.624;2023-07-30T08:39:01;2.63;;;0.63;;
52041;SDS011;38052;45.944;13.624;2023-07-30T08:41:29;1.55;;;0.40;;
52041;SDS011;38052;45.944;13.624;2023-07-30T08:43:55;1.52;;;0.45;;
52041;SDS011;38052;45.944;13.624;2023-07-30T08:46:21;3.65;;;0.80;;
52041;SDS011;38052;45.944;13.624;2023-07-30T08:48:47;1.08;;;0.50;;
52041;SDS011;38052;45.944;13.624;2023-07-30T08:51:14;1.25;;;0.40;;
52041;SDS011;38052;45.944;13.624;2023-07-30T08:53:42;2.20;;;0.32;;
52041;SDS011;38052;45.944;13.624;2023-07-30T08:56:08;1.40;;;0.60;;
52041;SDS011;38052;45.944;13.624;2023-07-30T08:58:35;1.45;;;0.30;;
52041;SDS011;38052;45.944;13.624;2023-07-30T09:01:05;1.52;;;0.40;;
52041;SDS011;38052;45.944;13.624;2023-07-30T09:03:34;1.05;;;0.57;;
52041;SDS011;38052;45.944;13.624;2023-07-30T09:06:01;1.45;;;0.40;;
52041;SDS011;38052;45.944;13.624;2023-07-30T09:08:28;0.70;;;0.30;;
52041;SDS011;38052;45.944;13.624;2023-07-30T09:10:57;1.17;;;0.47;;
52041;SDS011;38052;45.944;13.624;2023-07-30T09:13:23;1.50;;;0.40;;
52041;SDS011;38052;45.944;13.624;2023-07-30T09:15:49;0.93;;;0.38;;
52041;SDS011;38052;45.944;13.624;2023-07-30T09:18:16;0.80;;;0.30;;
52041;SDS011;38052;45.944;13.624;2023-07-30T09:20:46;0.68;;;0.50;;
52041;SDS011;38052;45.944;13.624;2023-07-30T09:23:13;0.77;;;0.30;;
52041;SDS011;38052;45.944;13.624;2023-07-30T09:25:39;1.05;;;0.30;;
52041;SDS011;38052;45.944;13.624;2023-07-30T09:28:06;1.02;;;0.40;;
52041;SDS011;38052;45.944;13.624;2023-07-30T09:30:33;3.28;;;0.60;;
52041;SDS011;38052;45.944;13.624;2023-07-30T09:32:59;1.25;;;0.40;;
52041;SDS011;38052;45.944;13.624;2023-07-30T09:35:26;0.65;;;0.40;;
52041;SDS011;38052;45.944;13.624;2023-07-30T09:38:00;1.23;;;0.40;;
52041;SDS011;38052;45.944;13.624;2023-07-30T09:40:31;0.82;;;0.32;;
52041;SDS011;38052;45.944;13.624;2023-07-30T09:42:57;2.38;;;1.13;;
52041;SDS011;38052;45.944;13.624;2023-07-30T09:45:26;1.83;;;0.70;;
52041;SDS011;38052;45.944;13.624;2023-07-30T09:47:53;1.63;;;1.10;;
52041;SDS011;38052;45.944;13.624;2023-07-30T09:50:21;2.03;;;0.55;;
52041;SDS011;38052;45.944;13.624;2023-07-30T09:52:47;0.93;;;0.50;;
52041;SDS011;38052;45.944;13.624;2023-07-30T09:55:15;1.48;;;0.40;;
52041;SDS011;38052;45.944;13.624;2023-07-30T09:57:41;0.80;;;0.38;;
52041;SDS011;38052;45.944;13.624;2023-07-30T10:00:08;1.83;;;0.52;;
52041;SDS011;38052;45.944;13.624;2023-07-30T10:02:38;2.85;;;0.77;;
52041;SDS011;38052;45.944;13.624;2023-07-30T10:05:14;0.47;;;0.20;;
52041;SDS011;38052;45.944;13.624;2023-07-30T10:07:42;1.10;;;0.32;;
52041;SDS011;38052;45.944;13.624;2023-07-30T10:10:10;0.50;;;0.30;;
52041;SDS011;38052;45.944;13.624;2023-07-30T10:12:37;0.60;;;0.30;;
52041;SDS011;38052;45.944;13.624;2023-07-30T10:15:06;1.23;;;0.47;;
52041;SDS011;38052;45.944;13.624;2023-07-30T10:17:32;2.10;;;0.40;;
52041;SDS011;38052;45.944;13.624;2023-07-30T10:20:17;1.73;;;0.15;;
52041;SDS011;38052;45.944;13.624;2023-07-30T10:22:46;2.03;;;0.52;;
52041;SDS011;38052;45.944;13.624;2023-07-30T10:25:12;0.90;;;0.40;;
52041;SDS011;38052;45.944;13.624;2023-07-30T10:27:40;2.15;;;0.32;;
52041;SDS011;38052;45.944;13.624;2023-07-30T10:30:14;0.85;;;0.30;;
52041;SDS011;38052;45.944;13.624;2023-07-30T10:32:42;1.25;;;0.60;;
52041;SDS011;38052;45.944;13.624;2023-07-30T10:35:35;1.83;;;0.63;;
52041;SDS011;38052;45.944;13.624;2023-07-30T10:38:12;0.60;;;0.30;;
52041;SDS011;38052;45.944;13.624;2023-07-30T10:40:39;0.80;;;0.30;;
52041;SDS011;38052;45.944;13.624;2023-07-30T10:43:15;2.05;;;0.73;;
52041;SDS011;38052;45.944;13.624;2023-07-30T10:45:48;0.75;;;0.30;;
52041;SDS011;38052;45.944;13.624;2023-07-30T10:48:15;1.63;;;0.70;;
52041;SDS011;38052;45.944;13.624;2023-07-30T10:50:41;1.85;;;0.60;;
52041;SDS011;38052;45.944;13.624;2023-07-30T10:53:08;2.13;;;0.60;;
52041;SDS011;38052;45.944;13.624;2023-07-30T10:55:35;0.85;;;0.50;;
52041;SDS011;38052;45.944;13.624;2023-07-30T10:58:01;1.27;;;0.50;;
52041;SDS011;38052;45.944;13.624;2023-07-30T11:00:28;1.15;;;0.50;;
52041;SDS011;38052;45.944;13.624;2023-07-30T11:02:54;0.80;;;0.40;;
52041;SDS011;38052;45.944;13.624;2023-07-30T11:05:21;1.20;;;0.60;;
52041;SDS011;38052;45.944;13.624;2023-07-30T11:07:50;1.73;;;0.38;;
52041;SDS011;38052;45.944;13.624;2023-07-30T11:10:16;2.65;;;1.27;;
52041;SDS011;38052;45.944;13.624;2023-07-30T11:12:43;0.80;;;0.45;;
52041;SDS011;38052;45.944;13.624;2023-07-30T11:15:09;0.73;;;0.32;;
52041;SDS011;38052;45.944;13.624;2023-07-30T11:17:36;1.10;;;0.40;;
52041;SDS011;38052;45.944;13.624;2023-07-30T11:20:02;0.85;;;0.35;;
52041;SDS011;38052;45.944;13.624;2023-07-30T11:22:32;0.65;;;0.30;;
52041;SDS011;38052;45.944;13.624;2023-07-30T11:24:59;0.52;;;0.32;;
52041;SDS011;38052;45.944;13.624;2023-07-30T11:27:26;0.80;;;0.55;;
52041;SDS011;38052;45.944;13.624;2023-07-30T11:29:56;1.02;;;0.40;;
52041;SDS011;38052;45.944;13.624;2023-07-30T11:34:51;1.88;;;0.50;;
52041;SDS011;38052;45.944;13.624;2023-07-30T11:37:18;1.27;;;0.50;;
52041;SDS011;38052;45.944;13.624;2023-07-30T11:39:45;0.80;;;0.50;;
52041;SDS011;38052;45.944;13.624;2023-07-30T11:42:12;1.00;;;0.50;;
52041;SDS011;38052;45.944;13.624;2023-07-30T11:44:38;1.13;;;0.60;;
52041;SDS011;38052;45.944;13.624;2023-07-30T11:47:08;0.55;;;0.32;;
52041;SDS011;38052;45.944;13.624;2023-07-30T11:49:37;1.73;;;0.98;;
52041;SDS011;38052;45.944;13.624;2023-07-30T11:52:09;2.65;;;0.50;;
52041;SDS011;38052;45.944;13.624;2023-07-30T11:54:36;0.98;;;0.57;;
52041;SDS011;38052;45.944;13.624;2023-07-30T11:57:03;0.88;;;0.43;;
52041;SDS011;38052;45.944;13.624;2023-07-30T11:59:32;1.33;;;0.20;;
52041;SDS011;38052;45.944;13.624;2023-07-30T12:01:59;0.90;;;0.50;;
52041;SDS011;38052;45.944;13.624;2023-07-30T12:04:29;0.60;;;0.32;;
52041;SDS011;38052;45.944;13.624;2023-07-30T12:06:56;1.25;;;0.40;;
52041;SDS011;38052;45.944;13.624;2023-07-30T12:09:23;3.13;;;1.00;;
52041;SDS011;38052;45.944;13.624;2023-07-30T12:11:56;2.10;;;0.50;;
52041;SDS011;38052;45.944;13.624;2023-07-30T12:14:24;0.38;;;0.20;;
52041;SDS011;38052;45.944;13.624;2023-07-30T12:16:58;0.60;;;0.30;;
52041;SDS011;38052;45.944;13.624;2023-07-30T12:19:25;0.50;;;0.40;;
52041;SDS011;38052;45.944;13.624;2023-07-30T12:21:52;0.55;;;0.22;;
52041;SDS011;38052;45.944;13.624;2023-07-30T12:24:18;1.00;;;0.43;;
52041;SDS011;38052;45.944;13.624;2023-07-30T12:26:45;2.10;;;0.52;;
52041;SDS011;38052;45.944;13.624;2023-07-30T12:29:11;0.60;;;0.35;;
52041;SDS011;38052;45.944;13.624;2023-07-30T12:31:37;0.70;;;0.50;;
52041;SDS011;38052;45.944;13.624;2023-07-30T12:34:04;0.45;;;0.30;;
52041;SDS011;38052;45.944;13.624;2023-07-30T12:36:30;0.57;;;0.20;;
52041;SDS011;38052;45.944;13.624;2023-07-30T12:38:57;0.65;;;0.30;;
52041;SDS011;38052;45.944;13.624;2023-07-30T12:41:23;1.75;;;0.30;;
52041;SDS011;38052;45.944;13.624;2023-07-30T12:43:53;0.80;;;0.30;;
52041;SDS011;38052;45.944;13.624;2023-07-30T12:46:21;0.47;;;0.20;;
52041;SDS011;38052;45.944;13.624;2023-07-30T12:48:47;0.70;;;0.40;;
52041;SDS011;38052;45.944;13.624;2023-07-30T12:51:14;1.27;;;0.40;;
52041;SDS011;38052;45.944;13.624;2023-07-30T12:53:40;1.83;;;0.30;;
52041;SDS011;38052;45.944;13.624;2023-07-30T12:56:07;0.93;;;0.30;;
52041;SDS011;38052;45.944;13.624;2023-07-30T12:58:33;0.80;;;0.47;;
52041;SDS011;38052;45.944;13.624;2023-07-30T13:00:59;0.73;;;0.30;;
52041;SDS011;38052;45.944;13.624;2023-07-30T13:03:25;0.60;;;0.20;;
52041;SDS011;38052;45.944;13.624;2023-07-30T13:05:51;0.60;;;0.20;;
52041;SDS011;38052;45.944;13.624;2023-07-30T13:08:17;0.63;;;0.30;;
52041;SDS011;38052;45.944;13.624;2023-07-30T13:10:44;0.93;;;0.40;;
52041;SDS011;38052;45.944;13.624;2023-07-30T13:13:10;0.88;;;0.30;;
52041;SDS011;38052;45.944;13.624;2023-07-30T13:15:37;0.70;;;0.30;;
52041;SDS011;38052;45.944;13.624;2023-07-30T13:18:04;0.52;;;0.20;;
52041;SDS011;38052;45.944;13.624;2023-07-30T13:20:31;1.08;;;0.30;;
52041;SDS011;38052;45.944;13.624;2023-07-30T13:22:57;0.30;;;0.22;;
52041;SDS011;38052;45.944;13.624;2023-07-30T13:25:24;2.08;;;0.30;;
52041;SDS011;38052;45.944;13.624;2023-07-30T13:27:50;0.82;;;0.40;;
52041;SDS011;38052;45.944;13.624;2023-07-30T13:30:17;1.27;;;0.43;;
52041;SDS011;38052;45.944;13.624;2023-07-30T13:32:43;0.30;;;0.30;;
52041;SDS011;38052;45.944;13.624;2023-07-30T13:35:09;0.75;;;0.50;;
52041;SDS011;38052;45.944;13.624;2023-07-30T13:37:36;0.28;;;0.20;;
52041;SDS011;38052;45.944;13.624;2023-07-30T13:40:02;0.40;;;0.20;;
52041;SDS011;38052;45.944;13.624;2023-07-30T13:42:28;0.50;;;0.38;;
52041;SDS011;38052;45.944;13.624;2023-07-30T13:44:55;1.27;;;0.47;;
52041;SDS011;38052;45.944;13.624;2023-07-30T13:47:21;0.65;;;0.47;;
52041;SDS011;38052;45.944;13.624;2023-07-30T13:49:47;0.82;;;0.30;;
52041;SDS011;38052;45.944;13.624;2023-07-30T13:52:15;0.43;;;0.15;;
52041;SDS011;38052;45.944;13.624;2023-07-30T13:54:42;0.43;;;0.20;;
52041;SDS011;38052;45.944;13.624;2023-07-30T13:57:10;0.93;;;0.55;;
52041;SDS011;38052;45.944;13.624;2023-07-30T13:59:36;0.60;;;0.22;;
52041;SDS011;38052;45.944;13.624;2023-07-30T14:02:04;1.73;;;0.30;;
52041;SDS011;38052;45.944;13.624;2023-07-30T14:04:31;4.53;;;0.80;;
52041;SDS011;38052;45.944;13.624;2023-07-30T14:06:57;1.30;;;0.28;;
52041;SDS011;38052;45.944;13.624;2023-07-30T14:09:24;2.10;;;0.43;;
52041;SDS011;38052;45.944;13.624;2023-07-30T14:11:57;1.00;;;0.40;;
52041;SDS011;38052;45.944;13.624;2023-07-30T14:14:24;1.45;;;0.28;;
52041;SDS011;38052;45.944;13.624;2023-07-30T14:16:52;1.23;;;0.30;;
52041;SDS011;38052;45.944;13.624;2023-07-30T14:19:19;1.00;;;0.40;;
52041;SDS011;38052;45.944;13.624;2023-07-30T14:21:45;0.65;;;0.25;;
52041;SDS011;38052;45.944;13.624;2023-07-30T14:24:12;0.70;;;0.20;;
52041;SDS011;38052;45.944;13.624;2023-07-30T14:26:39;1.77;;;0.30;;
52041;SDS011;38052;45.944;13.624;2023-07-30T14:29:05;0.45;;;0.30;;
52041;SDS011;38052;45.944;13.624;2023-07-30T14:31:31;1.50;;;0.50;;
52041;SDS011;38052;45.944;13.624;2023-07-30T14:33:57;0.90;;;0.47;;